.
WxDataArchive / Data Records for 2014-08-01
2014-07-31 August 2014 2014-08-02

Data Records for Friday, 01 August 2014

Time	Temp	Chill	HIndex	Humid	Dewpt	 Wind 	HiWind	WindDir	Rain 	Barom
-----	----	-----	------	-----	-----	------	------	-------	-----	-----
00:00	66.8	66.8	66.8	85	62.1	0	0	---	0.00	30.032 
00:05	66.6	66.6	66.6	85	61.9	0	0	---	0.00	30.032 
00:10	66.6	66.6	66.6	84	61.6	0	0	---	0.00	30.032 
00:15	66.6	66.6	66.6	84	61.6	0	0	---	0.00	30.032 
00:20	66.6	66.6	66.6	84	61.6	0	0	---	0.00	30.032 
00:25	66.8	66.8	66.8	84	61.8	0	0	---	0.00	30.032 
00:30	66.8	66.8	66.8	84	61.8	0	0	---	0.00	30.032 
00:35	66.6	66.6	66.6	84	61.6	0	0	---	0.00	30.032 
00:40	66.6	66.6	66.6	84	61.6	0	0	---	0.00	30.032 
00:45	66.6	66.6	66.6	84	61.6	0	0	---	0.00	30.034 
00:50	66.6	66.6	66.6	84	61.6	0	0	---	0.00	30.034 
00:55	66.6	66.6	66.6	84	61.6	0	0	---	0.00	30.034 
01:00	66.8	66.8	66.8	84	61.8	0	0	---	0.00	30.037 
01:05	66.8	66.8	66.8	83	61.5	0	0	---	0.00	30.037 
01:10	66.9	66.9	66.9	83	61.6	0	0	---	0.00	30.037 
01:15	66.9	66.9	66.9	83	61.6	0	0	---	0.00	30.030 
01:20	66.9	66.9	66.9	83	61.6	0	0	---	0.00	30.030 
01:25	66.9	66.9	66.9	82	61.2	0	0	---	0.00	30.030 
01:30	66.9	66.9	66.9	82	61.2	0	0	---	0.00	30.030 
01:35	66.9	66.9	66.9	82	61.2	0	0	---	0.00	30.030 
01:40	66.9	66.9	66.9	82	61.2	0	0	---	0.00	30.030 
01:45	66.9	66.9	66.9	82	61.2	0	0	---	0.00	30.027 
01:50	66.9	66.9	66.9	82	61.2	0	0	---	0.00	30.027 
01:55	66.8	66.8	66.8	82	61.1	0	0	---	0.00	30.027 
02:00	66.8	66.8	66.8	82	61.1	0	0	---	0.00	30.027 
02:05	66.6	66.6	66.6	82	60.9	0	0	---	0.00	30.027 
02:10	66.6	66.6	66.6	82	60.9	0	0	---	0.00	30.027 
02:15	66.4	66.4	66.4	82	60.7	0	0	---	0.00	30.028 
02:20	66.3	66.3	66.3	82	60.6	0	0	---	0.00	30.028 
02:25	66.1	66.1	66.1	83	60.8	0	0	---	0.00	30.028 
02:30	66.0	66.0	66.0	83	60.7	0	0	---	0.00	30.028 
02:35	65.6	65.6	65.6	83	60.3	0	0	---	0.00	30.028 
02:40	65.5	65.5	65.5	84	60.5	0	0	---	0.00	30.028 
02:45	65.3	65.3	65.3	84	60.3	0	0	---	0.00	30.028 
02:50	65.2	65.2	65.2	85	60.6	0	0	---	0.00	30.028 
02:55	65.0	65.0	65.0	85	60.4	0	0	---	0.00	30.028 
03:00	64.8	64.8	64.8	85	60.2	0	0	---	0.00	30.028 
03:05	64.7	64.7	64.7	85	60.1	0	0	---	0.00	30.028 
03:10	64.5	64.5	64.5	85	59.9	0	0	---	0.00	30.028 
03:15	64.3	64.3	64.3	85	59.7	0	0	---	0.00	30.029 
03:20	64.2	64.2	64.2	86	59.9	0	0	---	0.00	30.029 
03:25	64.2	64.2	64.2	87	60.2	0	0	---	0.00	30.029 
03:30	63.9	63.9	63.9	87	59.9	0	0	---	0.00	30.032 
03:35	63.9	63.9	63.9	87	59.9	0	0	---	0.00	30.032 
03:40	63.7	63.7	63.7	87	59.8	0	0	---	0.00	30.032 
03:45	63.5	63.5	63.5	88	59.9	0	0	---	0.00	30.031 
03:50	63.4	63.4	63.4	88	59.8	0	0	---	0.00	30.031 
03:55	63.4	63.4	63.4	88	59.8	0	0	---	0.00	30.031 
04:00	63.2	63.2	63.2	88	59.6	0	0	---	0.00	30.030 
04:05	63.1	63.1	63.1	88	59.5	0	0	---	0.00	30.030 
04:10	63.1	63.1	63.1	88	59.5	0	0	---	0.00	30.030 
04:15	63.1	63.1	63.1	89	59.8	0	0	---	0.00	30.030 
04:20	63.1	63.1	63.1	89	59.8	0	0	---	0.00	30.030 
04:25	63.1	63.1	63.1	89	59.8	0	0	---	0.00	30.030 
04:30	62.9	62.9	62.9	89	59.6	0	0	---	0.00	30.032 
04:35	62.9	62.9	62.9	89	59.6	0	0	---	0.00	30.032 
04:40	62.9	62.9	62.9	90	59.9	0	0	---	0.00	30.032 
04:45	62.7	62.7	62.7	90	59.7	0	0	---	0.00	30.034 
04:50	62.7	62.7	62.7	90	59.7	0	0	---	0.00	30.034 
04:55	62.7	62.7	62.7	90	59.7	0	0	---	0.00	30.034 
05:00	62.7	62.7	62.7	90	59.7	0	0	---	0.00	30.041 
05:05	62.7	62.7	62.7	90	59.7	0	0	---	0.00	30.041 
05:10	62.6	62.6	62.6	90	59.6	0	0	---	0.00	30.041 
05:15	62.6	62.6	62.6	90	59.6	0	0	---	0.00	30.043 
05:20	62.4	62.4	62.4	90	59.4	0	0	---	0.00	30.043 
05:25	62.4	62.4	62.4	90	59.4	0	0	---	0.00	30.043 
05:30	62.4	62.4	62.4	90	59.4	0	0	---	0.00	30.045 
05:35	62.3	62.3	62.3	90	59.3	0	0	---	0.00	30.045 
05:40	62.3	62.3	62.3	90	59.3	0	0	---	0.00	30.045 
05:45	62.1	62.1	62.1	90	59.1	0	0	---	0.00	30.046 
05:50	62.0	62.0	62.0	91	59.3	0	0	---	0.00	30.046 
05:55	62.0	62.0	62.0	91	59.3	0	0	---	0.00	30.046 
06:00	61.8	61.8	61.8	91	59.1	0	0	---	0.00	30.046 
06:05	61.8	61.8	61.8	91	59.1	0	0	---	0.00	30.046 
06:10	61.8	61.8	61.8	91	59.1	0	0	---	0.00	30.046 
06:15	61.8	61.8	61.8	91	59.1	0	0	---	0.00	30.050 
06:20	61.8	61.8	61.8	91	59.1	0	0	---	0.00	30.050 
06:25	61.6	61.6	61.6	91	58.9	0	0	---	0.00	30.050 
06:30	61.6	61.6	61.6	92	59.2	0	0	---	0.00	30.053 
06:35	61.6	61.6	61.6	92	59.2	0	0	---	0.00	30.053 
06:40	61.5	61.5	61.5	92	59.2	0	0	---	0.00	30.053 
06:45	61.3	61.3	61.3	92	59.0	0	0	---	0.00	30.064 
06:50	61.3	61.3	61.3	92	59.0	0	0	---	0.00	30.064 
06:55	61.2	61.2	61.2	92	58.9	0	0	---	0.00	30.064 
07:00	61.2	61.2	61.2	92	58.9	0	0	---	0.00	30.067 
07:05	61.2	61.2	61.2	92	58.9	0	0	---	0.00	30.067 
07:10	61.0	61.0	61.0	92	58.7	0	0	---	0.00	30.067 
07:15	61.0	61.0	61.0	92	58.7	0	0	---	0.00	30.072 
07:20	61.0	61.0	61.0	92	58.7	0	0	---	0.00	30.072 
07:25	61.2	61.2	61.2	92	58.9	0	0	---	0.00	30.072 
07:30	61.2	61.2	61.2	92	58.9	0	0	---	0.00	30.074 
07:35	61.3	61.3	61.3	92	59.0	0	0	---	0.00	30.074 
07:40	61.5	61.5	61.5	92	59.2	0	0	---	0.00	30.074 
07:45	61.8	61.8	61.8	92	59.4	0	0	---	0.00	30.080 
07:50	62.1	62.1	62.1	93	60.0	0	0	---	0.00	30.080 
07:55	62.4	62.4	62.4	92	60.0	0	0	---	0.00	30.080 
08:00	62.9	62.9	62.9	92	60.5	0	0	---	0.00	30.078 
08:05	63.2	63.2	63.2	92	60.8	0	0	---	0.00	30.078 
08:10	63.7	63.7	63.7	92	61.3	0	0	---	0.00	30.078 
08:15	64.3	64.3	64.3	92	61.9	0	0	---	0.00	30.084 
08:20	65.0	65.0	65.0	91	62.3	0	0	---	0.00	30.084 
08:25	65.5	65.5	65.5	90	62.5	0	0	---	0.00	30.084 
08:30	66.0	66.0	66.0	88	62.3	0	0	---	0.00	30.085 
08:35	66.4	66.4	66.4	87	62.4	0	0	---	0.00	30.085 
08:40	66.9	66.9	66.9	85	62.2	0	0	---	0.00	30.085 
08:45	67.4	67.4	67.4	83	62.0	0	1	292	0.00	30.084 
08:50	67.8	67.8	67.8	81	61.7	0	1	292	0.00	30.084 
08:55	68.3	68.3	68.3	80	61.9	0	0	---	0.00	30.084 
09:00	68.6	68.6	68.6	79	61.8	0	1	292	0.00	30.083 
09:05	69.1	69.1	69.1	77	61.6	0	1	292	0.00	30.083 
09:10	69.6	69.6	69.6	77	62.1	0	1	292	0.00	30.083 
09:15	69.9	69.9	69.9	75	61.6	0	1	292	0.00	30.083 
09:20	70.3	70.3	70.3	74	61.6	0	2	292	0.00	30.083 
09:25	70.9	70.9	70.9	74	62.2	0	1	292	0.00	30.083 
09:30	71.5	71.5	71.5	73	62.4	0	1	292	0.00	30.084 
09:35	72.0	72.0	72.0	72	62.5	0	1	292	0.00	30.084 
09:40	72.3	72.3	72.3	70	62.0	0	1	292	0.00	30.084 
09:45	72.5	72.5	72.5	69	61.7	0	2	292	0.00	30.081 
09:50	72.7	72.7	72.7	69	61.9	1	2	292	0.00	30.081 
09:55	72.8	72.8	72.8	69	62.0	0	2	292	0.00	30.081 
10:00	73.3	73.3	73.3	69	62.5	0	1	292	0.00	30.080 
10:05	73.9	73.9	73.9	67	62.2	0	1	292	0.00	30.080 
10:10	74.2	74.2	74.2	65	61.7	0	2	292	0.00	30.080 
10:15	74.6	74.6	74.6	66	62.5	0	2	292	0.00	30.076 
10:20	75.1	75.1	77.1	65	62.5	0	1	292	0.00	30.076 
10:25	75.3	75.3	77.4	63	61.8	1	2	292	0.00	30.076 
10:30	75.4	75.4	77.5	63	61.9	0	2	292	0.00	30.077 
10:35	75.8	75.8	77.8	62	61.8	0	2	292	0.00	30.077 
10:40	76.0	76.0	78.0	60	61.1	0	2	292	0.00	30.077 
10:45	76.5	76.5	78.4	61	62.0	0	2	292	0.00	30.079 
10:50	76.8	76.8	78.6	58	60.9	1	3	292	0.00	30.079 
10:55	77.0	77.0	78.8	58	61.1	0	2	292	0.00	30.079 
11:00	77.2	77.2	78.9	57	60.8	1	2	292	0.00	30.078 
11:05	77.4	77.4	79.0	56	60.5	0	1	292	0.00	30.078 
11:10	77.9	77.9	79.5	57	61.4	0	1	292	0.00	30.078 
11:15	78.1	78.1	79.5	55	60.6	1	2	292	0.00	30.078 
11:20	78.5	78.5	79.9	55	61.0	0	2	292	0.00	30.078 
11:25	78.6	78.6	80.0	55	61.1	1	2	292	0.00	30.078 
11:30	78.6	78.6	79.9	54	60.5	0	3	315	0.00	30.076 
11:35	78.8	78.8	80.1	55	61.2	0	1	315	0.00	30.076 
11:40	78.5	78.5	79.8	53	59.9	0	1	315	0.00	30.076 
11:45	78.3	78.3	79.7	54	60.3	0	2	315	0.00	30.078 
11:50	78.1	78.1	79.5	55	60.6	0	1	315	0.00	30.078 
11:55	77.9	77.9	79.4	55	60.4	1	3	315	0.00	30.078 
12:00	77.9	77.9	79.5	57	61.4	0	2	315	0.00	30.077 
12:05	78.3	78.3	79.7	55	60.8	0	2	315	0.00	30.077 
12:10	79.0	79.0	80.1	52	59.8	0	3	315	0.00	30.077 
12:15	79.0	79.0	80.2	53	60.4	1	3	315	0.00	30.076 
12:20	78.8	78.8	80.0	53	60.2	0	2	315	0.00	30.076 
12:25	78.6	78.6	79.9	54	60.5	0	1	315	0.00	30.076 
12:30	78.5	78.5	79.7	52	59.4	0	1	315	0.00	30.075 
12:35	79.0	79.0	80.3	55	61.4	0	1	315	0.00	30.075 
12:40	79.2	79.2	80.3	52	60.0	0	2	315	0.00	30.075 
12:45	79.8	79.8	80.9	53	61.1	0	2	315	0.00	30.073 
12:50	80.1	80.1	81.1	52	60.9	0	2	315	0.00	30.073 
12:55	80.1	80.1	81.0	51	60.3	0	1	315	0.00	30.073 
13:00	79.9	79.9	81.1	54	61.7	0	3	315	0.00	30.069 
13:05	80.3	80.3	81.3	52	61.0	0	4	22	0.00	30.069 
13:10	80.5	80.5	81.4	51	60.7	0	1	22	0.00	30.069 
13:15	81.2	81.2	81.7	48	59.6	0	2	22	0.00	30.066 
13:20	81.6	81.6	81.9	47	59.4	1	2	45	0.00	30.066 
13:25	81.6	81.6	82.1	48	60.0	0	1	45	0.00	30.066 
13:30	81.8	81.8	82.1	47	59.6	0	2	45	0.00	30.062 
13:35	81.6	81.6	81.9	47	59.4	1	3	0	0.00	30.062 
13:40	80.9	80.9	81.3	47	58.8	1	2	0	0.00	30.062 
13:45	80.9	80.9	81.2	46	58.2	0	2	0	0.00	30.062 
13:50	81.1	81.1	81.4	46	58.3	0	1	0	0.00	30.062 
13:55	81.1	81.1	81.4	46	58.3	0	2	0	0.00	30.062 
14:00	81.6	81.6	81.7	45	58.2	0	2	0	0.00	30.060 
14:05	82.0	82.0	82.1	45	58.5	0	1	0	0.00	30.060 
14:10	82.2	82.2	82.5	47	59.9	0	2	0	0.00	30.060 
14:15	82.2	82.2	82.1	44	58.1	1	4	22	0.00	30.058 
14:20	81.8	81.8	82.1	47	59.6	0	1	22	0.00	30.058 
14:25	81.6	81.6	82.2	49	60.6	0	2	22	0.00	30.058 
14:30	81.6	81.6	82.1	48	60.0	0	2	0	0.00	30.048 
14:35	81.4	81.4	81.9	48	59.8	0	2	0	0.00	30.048 
14:40	81.1	81.1	81.8	50	60.7	0	2	0	0.00	30.048 
14:45	80.9	80.9	81.5	49	59.9	0	1	0	0.00	30.045 
14:50	80.9	80.9	81.6	50	60.5	0	0	---	0.00	30.045 
14:55	80.9	80.9	81.5	49	59.9	0	1	0	0.00	30.045 
15:00	81.1	81.1	81.6	48	59.5	0	0	---	0.00	30.045 
15:05	80.9	80.9	81.4	48	59.3	0	1	0	0.00	30.045 
15:10	81.1	81.1	81.6	48	59.5	0	2	0	0.00	30.045 
15:15	81.4	81.4	81.9	48	59.8	1	3	0	0.00	30.046 
15:20	81.8	81.8	82.0	46	59.0	1	3	22	0.00	30.046 
15:25	81.6	81.6	82.1	48	60.0	0	2	22	0.00	30.046 
15:30	81.4	81.4	81.8	47	59.2	0	2	22	0.00	30.045 
15:35	81.4	81.4	81.8	47	59.2	0	1	22	0.00	30.045 
15:40	81.2	81.2	81.6	47	59.0	0	1	22	0.00	30.045 
15:45	80.9	80.9	81.3	47	58.8	0	1	22	0.00	30.044 
15:50	81.1	81.1	81.5	47	58.9	0	1	22	0.00	30.044 
15:55	81.6	81.6	82.2	49	60.6	0	0	---	0.00	30.044 
16:00	81.8	81.8	82.1	47	59.6	0	2	22	0.00	30.040 
16:05	81.8	81.8	81.8	44	57.7	0	0	---	0.00	30.040 
16:10	82.0	82.0	82.2	46	59.1	0	3	22	0.00	30.040 
16:15	80.7	80.7	80.7	43	56.1	1	6	315	0.00	30.045 
16:20	79.6	79.6	79.7	41	53.8	1	3	315	0.00	30.045 
16:25	78.8	78.8	79.3	42	53.7	0	2	338	0.00	30.045 
16:30	78.3	78.3	79.0	42	53.3	1	2	338	0.00	30.045 
16:35	78.1	78.1	78.7	39	51.1	1	3	338	0.00	30.045 
16:40	78.1	78.1	78.7	39	51.1	1	3	315	0.00	30.045 
16:45	78.1	78.1	78.8	41	52.5	1	5	315	0.00	30.043 
16:50	78.3	78.3	79.0	42	53.3	0	2	315	0.00	30.043 
16:55	77.9	77.9	78.8	43	53.6	0	2	315	0.00	30.043 
17:00	77.7	77.7	78.7	43	53.4	0	3	315	0.00	30.038 
17:05	77.7	77.7	78.8	44	54.0	0	2	315	0.00	30.038 
17:10	77.9	77.9	78.8	42	52.9	1	3	315	0.00	30.038 
17:15	77.2	77.2	78.4	42	52.3	0	2	315	0.00	30.036 
17:20	76.7	76.7	78.2	42	51.9	0	2	315	0.00	30.036 
17:25	76.3	76.3	78.1	44	52.8	0	1	315	0.00	30.036 
17:30	76.0	76.0	78.0	46	53.7	0	0	---	0.00	30.035 
17:35	75.6	75.6	77.9	47	53.9	0	2	315	0.00	30.035 
17:40	75.3	75.3	77.7	48	54.2	0	2	315	0.00	30.035 
17:45	74.9	74.9	74.9	51	55.5	2	4	315	0.00	30.046 
17:50	74.4	74.4	74.4	56	57.7	3	6	292	0.00	30.046 
17:55	73.7	73.7	73.7	59	58.5	2	6	270	0.00	30.046 
18:00	73.0	73.0	73.0	60	58.3	1	5	270	0.00	30.047 
18:05	72.7	72.7	72.7	59	57.5	1	3	315	0.00	30.047 
18:10	72.8	72.8	72.8	59	57.6	0	2	315	0.00	30.047 
18:15	72.7	72.7	72.7	61	58.5	0	1	315	0.00	30.039 
18:20	72.7	72.7	72.7	61	58.5	0	1	315	0.00	30.039 
18:25	72.5	72.5	72.5	61	58.3	0	2	315	0.00	30.039 
18:30	72.5	72.5	72.5	57	56.4	1	4	315	0.00	30.040 
18:35	72.7	72.7	72.7	56	56.1	0	2	315	0.00	30.040 
18:40	72.7	72.7	72.7	55	55.6	0	1	315	0.00	30.040 
18:45	72.8	72.8	72.8	55	55.7	0	1	315	0.00	30.039 
18:50	73.2	73.2	73.2	56	56.5	0	1	315	0.00	30.039 
18:55	73.3	73.3	73.3	56	56.6	0	1	315	0.00	30.039 
19:00	73.5	73.5	73.5	56	56.8	0	1	315	0.00	30.039 
19:05	73.9	73.9	73.9	57	57.7	0	1	315	0.00	30.039 
19:10	74.0	74.0	74.0	57	57.8	0	1	315	0.00	30.039 
19:15	74.2	74.2	74.2	57	58.0	0	1	315	0.00	30.039 
19:20	74.4	74.4	74.4	56	57.7	0	1	315	0.00	30.039 
19:25	74.4	74.4	74.4	57	58.2	0	1	315	0.00	30.039 
19:30	74.2	74.2	74.2	57	58.0	0	1	315	0.00	30.037 
19:35	74.0	74.0	74.0	58	58.3	0	0	---	0.00	30.037 
19:40	74.0	74.0	74.0	58	58.3	0	0	---	0.00	30.037 
19:45	73.9	73.9	73.9	58	58.2	0	0	---	0.00	30.037 
19:50	73.7	73.7	73.7	59	58.5	0	0	---	0.00	30.037 
19:55	73.7	73.7	73.7	60	58.9	0	0	---	0.00	30.037 
20:00	73.5	73.5	73.5	61	59.2	0	0	---	0.00	30.039 
20:05	73.3	73.3	73.3	61	59.0	0	0	---	0.00	30.039 
20:10	73.0	73.0	73.0	62	59.2	0	0	---	0.00	30.039 
20:15	72.8	72.8	72.8	63	59.5	0	0	---	0.00	30.032 
20:20	72.7	72.7	72.7	63	59.4	0	0	---	0.00	30.032 
20:25	72.5	72.5	72.5	63	59.2	0	0	---	0.00	30.032 
20:30	72.1	72.1	72.1	64	59.2	0	0	---	0.00	30.035 
20:35	72.0	72.0	72.0	65	59.6	0	0	---	0.00	30.035 
20:40	71.6	71.6	71.6	66	59.6	0	0	---	0.00	30.035 
20:45	71.3	71.3	71.3	66	59.3	0	0	---	0.00	30.042 
20:50	70.9	70.9	70.9	68	59.8	0	0	---	0.00	30.042 
20:55	70.6	70.6	70.6	69	59.9	0	0	---	0.00	30.042 
21:00	70.4	70.4	70.4	70	60.1	0	0	---	0.00	30.047 
21:05	70.1	70.1	70.1	71	60.2	0	0	---	0.00	30.047 
21:10	69.9	69.9	69.9	72	60.4	0	0	---	0.00	30.047 
21:15	69.6	69.6	69.6	73	60.6	0	0	---	0.00	30.047 
21:20	69.4	69.4	69.4	74	60.7	0	0	---	0.00	30.047 
21:25	69.4	69.4	69.4	74	60.7	0	0	---	0.00	30.047 
21:30	69.3	69.3	69.3	75	61.0	0	0	---	0.00	30.048 
21:35	69.1	69.1	69.1	76	61.2	0	0	---	0.00	30.048 
21:40	68.9	68.9	68.9	77	61.4	0	0	---	0.00	30.048 
21:45	68.9	68.9	68.9	77	61.4	0	0	---	0.00	30.053 
21:50	68.9	68.9	68.9	78	61.7	0	0	---	0.00	30.053 
21:55	68.8	68.8	68.8	78	61.7	0	0	---	0.00	30.053 
22:00	68.6	68.6	68.6	79	61.8	0	0	---	0.00	30.056 
22:05	68.4	68.4	68.4	80	62.0	0	0	---	0.00	30.056 
22:10	68.4	68.4	68.4	81	62.3	0	0	---	0.00	30.056 
22:15	68.4	68.4	68.4	81	62.3	0	0	---	0.00	30.059 
22:20	68.3	68.3	68.3	81	62.2	0	0	---	0.00	30.059 
22:25	68.1	68.1	68.1	81	62.0	0	0	---	0.00	30.059 
22:30	68.1	68.1	68.1	82	62.4	0	0	---	0.00	30.058 
22:35	68.1	68.1	68.1	82	62.4	0	0	---	0.00	30.058 
22:40	67.9	67.9	67.9	82	62.2	0	0	---	0.00	30.058 
22:45	67.8	67.8	67.8	82	62.1	0	0	---	0.00	30.053 
22:50	67.8	67.8	67.8	82	62.1	0	0	---	0.00	30.053 
22:55	67.6	67.6	67.6	82	61.9	0	0	---	0.00	30.053 
23:00	67.4	67.4	67.4	82	61.7	0	0	---	0.00	30.057 
23:05	67.3	67.3	67.3	82	61.6	0	0	---	0.00	30.057 
23:10	67.3	67.3	67.3	82	61.6	0	0	---	0.00	30.057 
23:15	67.3	67.3	67.3	82	61.6	0	0	---	0.00	30.053 
23:20	67.1	67.1	67.1	83	61.8	0	0	---	0.00	30.053 
23:25	67.3	67.3	67.3	83	62.0	0	0	---	0.00	30.053 
23:30	67.3	67.3	67.3	83	62.0	0	0	---	0.00	30.048 
23:35	67.4	67.4	67.4	83	62.0	0	1	315	0.00	30.048 
23:40	67.6	67.6	67.6	83	62.2	0	0	---	0.00	30.048 
23:45	67.8	67.8	67.8	83	62.4	0	1	315	0.00	30.045 
23:50	67.9	67.9	67.9	82	62.2	0	1	315	0.00	30.045 
23:55	68.1	68.1	68.1	84	63.1	1	5	112	0.04	30.045 

CoCoRaHS
IN-AL-39
A2 Web Hosting
Creative Commons License
GoDaddy
search engine by freefind advanced

loaded 2018-11-15 18:35:17 • last modified 2010-11-18 10:43:29
Privacy PolicyDisclaimer
• wx.awcolley.com is powered by PmWiki v.2002016 •
• all content (unless otherwise noted) © 2018 A W Colley